Terminal Aerodrome Forecast
Issued by NWS Tulsa, OK

Home | Current Version | Previous Version | Text Only | Print | Product List | Glossary On
Versions: 1 2 3 4 5 6 7 8 9 10 11 12 13 14 15 16
000
FTUS44 KTSA 250655 AAA
TAFTUL
TAF AMD
KTUL 250655Z 2507/2606 15006KT P6SM VCTS SCT050CB
      TEMPO 2507/2509 VRB10G18KT 3SM TSRA BR BKN015CB
     FM250900 34008KT P6SM OVC050
     FM251300 34012KT P6SM OVC025
     FM252100 30012KT P6SM OVC050=

USA.gov is the U.S. government's official web portal to all federal, state and local government web resources and services.